Route Details

Aircraft Information
Group: European Fleet
Types: A30F, A31F, B738
Route Data
Distance: 584nm
Duration: 1h 50m
Origin METAR: EDDK 152320Z AUTO 13003KT 090V200 CAVOK 19/15 Q1007 NOSIG
Dest. METAR: LIRF 152350Z 10018KT 080V140 9999 VCTS FEW010 24/21 Q1007 RETS NOSIG
Freight Data
(for Aug 16, 2022)
Load Factor:
69%
Manifested Cargo: 72,596lbs
Financial History
Total Freight: 223,326lbs
Average Load: 0lbs/flt
Fuel Used: 76,898lbs
Avg. Fuel Used: 0lbs/flt
Fuel Expense: $36,333
Avg. Fuel Expense: $0
Avg. Fuel Cost: $0/lbs
Total Gross Income: $434,452
Pilot Pay: $1,026
Total Expenses: $70,062
Total Revenue: $363,715
Average Revenue: $0

Capitol Logistics 569




EDDK
Cologne Bonn Airport
Cologne, DE
LIRF
Leonardo da Vinci International Airport
Rome, IT